createdAt,value
2023-01-12T00:02:23.068Z,79.87
2023-01-12T00:04:52.949Z,79.24
2023-01-12T00:07:21.391Z,79.59
2023-01-12T00:09:49.902Z,80.32
2023-01-12T00:12:18.391Z,79.49
2023-01-12T00:14:46.799Z,79.65
2023-01-12T00:17:17.336Z,80.62
2023-01-12T00:19:45.765Z,80.68
2023-01-12T00:22:18.255Z,80.60
2023-01-12T00:24:49.710Z,80.42
2023-01-12T00:27:20.234Z,80.39
2023-01-12T00:29:49.018Z,80.09
2023-01-12T00:32:19.894Z,79.31
2023-01-12T00:34:48.217Z,77.46
2023-01-12T00:37:17.956Z,76.14
2023-01-12T00:40:00.937Z,76.02
2023-01-12T00:42:48.021Z,76.19
2023-01-12T00:45:25.332Z,75.65
2023-01-12T00:47:54.490Z,75.87
2023-01-12T00:50:24.007Z,75.93
2023-01-12T00:52:53.487Z,74.99
2023-01-12T00:55:21.629Z,75.12
2023-01-12T00:57:49.863Z,75.38
2023-01-12T01:00:19.729Z,75.54
2023-01-12T01:02:48.220Z,75.79
2023-01-12T01:05:17.735Z,75.91
2023-01-12T01:07:47.246Z,75.31
2023-01-12T01:10:17.843Z,75.00
2023-01-12T01:12:45.934Z,74.13
2023-01-12T01:15:14.700Z,74.35
2023-01-12T01:17:42.851Z,75.12
2023-01-12T01:20:13.159Z,74.29
2023-01-12T01:22:41.308Z,75.77
2023-01-12T01:25:10.605Z,76.33
2023-01-12T01:27:40.145Z,75.93
2023-01-12T01:30:10.094Z,76.57
2023-01-12T01:32:38.525Z,76.58
2023-01-12T01:35:07.366Z,75.79
2023-01-12T01:37:35.468Z,76.21
2023-01-12T01:40:03.558Z,74.96
2023-01-12T01:42:31.777Z,74.75
2023-01-12T01:45:03.604Z,75.38
2023-01-12T01:47:41.830Z,75.24
2023-01-12T01:50:19.145Z,75.07
2023-01-12T01:52:54.097Z,75.29
2023-01-12T01:55:27.365Z,75.01
2023-01-12T01:58:02.020Z,74.88
2023-01-12T02:00:31.841Z,75.13
2023-01-12T02:03:02.920Z,75.04
2023-01-12T02:05:31.385Z,74.68
2023-01-12T02:08:09.285Z,73.76
2023-01-12T02:10:39.293Z,74.57
2023-01-12T02:13:25.171Z,73.89
2023-01-12T02:16:21.395Z,73.50
2023-01-12T02:19:14.456Z,73.17
2023-01-12T02:22:28.418Z,72.60
2023-01-12T02:25:31.465Z,72.69
2023-01-12T02:28:54.110Z,71.66
2023-01-12T02:31:48.249Z,71.60
2023-01-12T02:34:31.717Z,70.59
2023-01-12T02:37:17.148Z,70.83
2023-01-12T02:39:58.896Z,71.10
2023-01-12T02:42:42.958Z,71.71
2023-01-12T02:45:31.544Z,71.16
2023-01-12T02:48:09.845Z,71.73
2023-01-12T02:50:49.873Z,71.03
2023-01-12T02:53:25.049Z,71.29
2023-01-12T02:55:54.506Z,70.86
2023-01-12T02:58:26.891Z,70.37
2023-01-12T03:00:58.949Z,70.23
2023-01-12T03:03:28.738Z,70.43
2023-01-12T03:06:00.010Z,71.55
2023-01-12T03:08:32.340Z,71.57
2023-01-12T03:11:12.979Z,71.01
2023-01-12T03:13:49.381Z,70.56
2023-01-12T03:16:23.159Z,70.61
2023-01-12T03:18:59.829Z,69.95
2023-01-12T03:21:33.809Z,69.68
2023-01-12T03:24:07.356Z,69.87
2023-01-12T03:26:42.326Z,70.46
2023-01-12T03:29:18.282Z,69.98
2023-01-12T03:31:47.055Z,69.87
2023-01-12T03:34:16.723Z,69.75
2023-01-12T03:36:55.549Z,69.95
2023-01-12T03:39:35.800Z,69.41
2023-01-12T03:42:10.205Z,69.44
2023-01-12T03:44:43.645Z,68.77
2023-01-12T03:47:18.963Z,68.59
2023-01-12T03:49:54.617Z,68.69
2023-01-12T03:52:26.358Z,68.64
2023-01-12T03:54:59.423Z,68.41
2023-01-12T03:57:29.439Z,68.00
2023-01-12T04:00:00.548Z,68.68
2023-01-12T04:02:28.984Z,68.58
2023-01-12T04:04:58.770Z,68.85
2023-01-12T04:07:27.054Z,69.03
2023-01-12T04:09:55.203Z,69.55
2023-01-12T04:12:23.307Z,69.20
2023-01-12T04:14:51.441Z,69.27
2023-01-12T04:17:24.127Z,68.50
2023-01-12T04:19:52.727Z,68.74
2023-01-12T04:22:39.614Z,68.87
2023-01-12T04:25:09.741Z,69.48
2023-01-12T04:27:41.695Z,69.13
2023-01-12T04:30:11.828Z,69.50
2023-01-12T04:32:39.960Z,68.85
2023-01-12T04:35:09.098Z,70.13
2023-01-12T04:37:38.720Z,69.71
2023-01-12T04:40:09.499Z,69.38
2023-01-12T04:43:09.501Z,69.93
2023-01-12T04:45:41.506Z,69.85
2023-01-12T04:48:12.641Z,69.25
2023-01-12T04:50:42.702Z,69.56
2023-01-12T04:53:14.000Z,69.69
2023-01-12T04:55:44.268Z,69.27
2023-01-12T04:58:12.401Z,69.39
2023-01-12T05:00:40.820Z,69.67
2023-01-12T05:03:11.169Z,70.00
2023-01-12T05:05:39.695Z,70.54
2023-01-12T05:08:26.322Z,69.90
2023-01-12T05:10:58.265Z,69.92
2023-01-12T05:13:29.347Z,70.33
2023-01-12T05:15:57.489Z,69.73
2023-01-12T05:18:27.740Z,69.85
2023-01-12T05:20:58.703Z,70.55
2023-01-12T05:23:27.252Z,70.34
2023-01-12T05:26:00.572Z,69.80
2023-01-12T05:28:28.933Z,69.67
2023-01-12T05:31:02.342Z,69.69
2023-01-12T05:33:30.950Z,70.32
2023-01-12T05:35:59.077Z,69.52
2023-01-12T05:38:27.269Z,69.34
2023-01-12T05:40:59.965Z,69.17
2023-01-12T05:43:46.197Z,68.92
2023-01-12T05:46:15.812Z,69.36
2023-01-12T05:48:44.140Z,68.86
2023-01-12T05:51:13.622Z,69.02
2023-01-12T05:53:42.799Z,68.92
2023-01-12T05:56:17.160Z,68.83
2023-01-12T05:58:50.061Z,68.44
2023-01-12T06:01:18.349Z,68.32
2023-01-12T06:03:50.622Z,68.66
2023-01-12T06:06:19.797Z,68.93
2023-01-12T06:08:49.715Z,68.33
2023-01-12T06:11:44.413Z,68.63
2023-01-12T06:14:13.001Z,68.58
2023-01-12T06:16:44.611Z,68.63
2023-01-12T06:19:13.539Z,69.29
2023-01-12T06:21:42.430Z,69.16
2023-01-12T06:24:10.844Z,68.96
2023-01-12T06:26:42.641Z,69.01
2023-01-12T06:29:10.772Z,69.36
2023-01-12T06:31:39.013Z,68.79
2023-01-12T06:34:07.883Z,69.02
2023-01-12T06:36:36.676Z,69.01
2023-01-12T06:39:05.437Z,69.46
2023-01-12T06:41:53.062Z,69.78
2023-01-12T06:44:22.573Z,69.49
2023-01-12T06:46:50.843Z,69.23
2023-01-12T06:49:19.733Z,69.34
2023-01-12T06:51:51.195Z,69.62
2023-01-12T06:54:19.340Z,69.80
2023-01-12T06:56:47.709Z,69.91
2023-01-12T06:59:15.938Z,69.38
2023-01-12T07:01:45.565Z,69.43
2023-01-12T07:04:13.879Z,69.76
2023-01-12T07:06:42.025Z,69.29
2023-01-12T07:09:10.227Z,69.38
2023-01-12T07:11:38.425Z,69.54
2023-01-12T07:14:09.042Z,69.34
2023-01-12T07:16:37.335Z,69.48
2023-01-12T07:19:06.875Z,69.41
2023-01-12T07:21:35.003Z,69.63
2023-01-12T07:24:03.362Z,69.86
2023-01-12T07:26:31.449Z,69.95
2023-01-12T07:28:59.556Z,69.60
2023-01-12T07:31:27.838Z,69.72
2023-01-12T07:33:56.903Z,69.87
2023-01-12T07:36:26.716Z,69.69
2023-01-12T07:38:54.890Z,70.13
2023-01-12T07:41:52.384Z,69.56
2023-01-12T07:44:20.538Z,69.71
2023-01-12T07:46:48.670Z,69.03
2023-01-12T07:49:16.814Z,69.54
2023-01-12T07:51:46.280Z,69.04
2023-01-12T07:54:14.420Z,69.06
2023-01-12T07:56:44.342Z,68.86
2023-01-12T07:59:12.664Z,68.96
2023-01-12T08:01:41.068Z,69.15
2023-01-12T08:04:09.284Z,68.63
2023-01-12T08:06:37.501Z,68.50
2023-01-12T08:09:07.104Z,68.78
2023-01-12T08:11:35.206Z,68.54
2023-01-12T08:14:05.371Z,69.10
2023-01-12T08:16:38.916Z,68.93
2023-01-12T08:19:16.151Z,68.25
2023-01-12T08:21:51.038Z,68.89
2023-01-12T08:24:30.438Z,68.37
2023-01-12T08:27:03.037Z,68.30
2023-01-12T08:29:41.079Z,68.15
2023-01-12T08:32:13.004Z,67.94
2023-01-12T08:34:44.799Z,67.84
2023-01-12T08:37:17.314Z,68.06
2023-01-12T08:39:49.329Z,67.57
2023-01-12T08:42:17.902Z,67.41
2023-01-12T08:44:46.249Z,68.08
2023-01-12T08:47:21.442Z,68.20
2023-01-12T08:49:49.962Z,68.20
2023-01-12T08:52:18.116Z,68.07
2023-01-12T08:54:48.118Z,67.69
2023-01-12T08:57:17.491Z,67.80
2023-01-12T08:59:45.645Z,67.96
2023-01-12T09:02:15.548Z,67.58
2023-01-12T09:04:44.116Z,67.80
2023-01-12T09:07:14.052Z,67.65
2023-01-12T09:09:42.148Z,67.30
2023-01-12T09:12:11.702Z,67.12
2023-01-12T09:14:39.816Z,66.78
2023-01-12T09:17:08.717Z,66.42
2023-01-12T09:19:37.055Z,66.07
2023-01-12T09:22:05.332Z,66.30
2023-01-12T09:24:33.429Z,66.12
2023-01-12T09:27:01.579Z,65.85
2023-01-12T09:29:31.056Z,65.53
2023-01-12T09:31:59.286Z,65.38
2023-01-12T09:34:27.570Z,65.53
2023-01-12T09:36:56.616Z,65.74
2023-01-12T09:39:28.550Z,65.92
2023-01-12T09:42:17.112Z,65.66
2023-01-12T09:45:09.141Z,65.70
2023-01-12T09:47:41.597Z,66.48
2023-01-12T09:50:16.912Z,65.79
2023-01-12T09:52:53.474Z,65.74
2023-01-12T09:55:24.450Z,66.38
2023-01-12T09:58:33.402Z,66.15
2023-01-12T10:01:14.646Z,66.09
2023-01-12T10:03:45.747Z,65.93
2023-01-12T10:06:17.724Z,65.70
2023-01-12T10:08:50.199Z,66.19
2023-01-12T10:11:29.127Z,65.77
2023-01-12T10:14:20.537Z,66.20
2023-01-12T10:17:10.948Z,65.85
2023-01-12T10:19:50.686Z,65.74
2023-01-12T10:22:38.128Z,65.10
2023-01-12T10:25:20.948Z,65.37
2023-01-12T10:27:54.879Z,65.11
2023-01-12T10:30:31.448Z,65.32
2023-01-12T10:33:11.413Z,65.27
2023-01-12T10:35:55.867Z,64.76
2023-01-12T10:38:28.611Z,64.78
2023-01-12T10:41:18.837Z,64.88
2023-01-12T10:44:15.212Z,64.46
2023-01-12T10:46:44.745Z,64.43
2023-01-12T10:49:23.068Z,64.62
2023-01-12T10:51:55.883Z,64.28
2023-01-12T10:54:28.626Z,64.76
2023-01-12T10:57:01.274Z,65.11
2023-01-12T10:59:33.575Z,64.12
2023-01-12T11:02:19.899Z,64.25
2023-01-12T11:04:52.657Z,64.22
2023-01-12T11:07:25.776Z,64.23
2023-01-12T11:09:55.181Z,63.68
2023-01-12T11:12:31.015Z,63.83
2023-01-12T11:15:02.958Z,63.97
2023-01-12T11:17:57.155Z,63.96
2023-01-12T11:20:33.825Z,64.45
2023-01-12T11:23:06.165Z,64.14
2023-01-12T11:25:42.722Z,63.52
2023-01-12T11:28:21.252Z,63.62
2023-01-12T11:30:56.095Z,63.29
2023-01-12T11:33:31.304Z,63.44
2023-01-12T11:36:07.744Z,63.85
2023-01-12T11:38:42.049Z,63.69
2023-01-12T11:41:30.948Z,63.65
2023-01-12T11:44:08.944Z,64.29
2023-01-12T11:46:46.443Z,64.14
2023-01-12T11:49:22.353Z,65.77
2023-01-12T11:51:57.594Z,65.18
2023-01-12T11:54:29.365Z,65.04
2023-01-12T11:57:23.408Z,64.84
2023-01-12T12:00:19.437Z,65.15
2023-01-12T12:03:07.852Z,65.39
2023-01-12T12:05:49.779Z,65.83
2023-01-12T12:08:37.620Z,66.09
2023-01-12T12:11:16.859Z,66.26
2023-01-12T12:14:02.757Z,65.93
2023-01-12T12:16:46.556Z,66.37
2023-01-12T12:19:34.610Z,66.04
2023-01-12T12:22:17.587Z,66.59
2023-01-12T12:25:06.414Z,66.10
2023-01-12T12:27:59.553Z,66.28
2023-01-12T12:31:01.232Z,66.30
2023-01-12T12:33:51.670Z,66.09
2023-01-12T12:36:34.820Z,66.30
2023-01-12T12:39:37.125Z,65.34
2023-01-12T12:42:57.258Z,66.05
2023-01-12T12:45:39.367Z,66.21
2023-01-12T12:48:16.114Z,65.79
2023-01-12T12:50:56.872Z,66.28
2023-01-12T12:53:29.699Z,66.06
2023-01-12T12:56:04.459Z,65.92
2023-01-12T12:58:46.429Z,65.52
2023-01-12T13:01:59.683Z,64.69
2023-01-12T13:05:06.517Z,64.46
2023-01-12T13:07:45.283Z,65.86
2023-01-12T13:10:31.702Z,65.28
2023-01-12T13:13:05.926Z,66.19
2023-01-12T13:15:39.208Z,66.02
2023-01-12T13:18:44.050Z,65.19
2023-01-12T13:21:33.590Z,65.14
2023-01-12T13:24:29.958Z,65.05
2023-01-12T13:27:00.658Z,64.97
2023-01-12T13:29:44.434Z,65.45
2023-01-12T13:32:58.854Z,65.13
2023-01-12T13:36:10.125Z,64.67
2023-01-12T13:38:56.786Z,64.87
2023-01-12T13:41:46.202Z,64.82
2023-01-12T13:44:25.173Z,65.01
2023-01-12T13:47:04.335Z,65.66
2023-01-12T13:49:36.863Z,64.60
2023-01-12T13:52:23.618Z,64.42
2023-01-12T13:54:52.946Z,65.06
2023-01-12T13:57:23.945Z,64.53
2023-01-12T14:00:01.085Z,64.88
2023-01-12T14:02:32.754Z,65.46
2023-01-12T14:05:30.965Z,65.23
2023-01-12T14:08:19.742Z,65.43
2023-01-12T14:11:00.465Z,65.39
2023-01-12T14:14:22.051Z,65.02
2023-01-12T14:17:07.522Z,65.00
2023-01-12T14:19:35.639Z,65.27
2023-01-12T14:22:05.174Z,65.06
2023-01-12T14:24:33.359Z,65.54
2023-01-12T14:27:16.350Z,64.95
2023-01-12T14:29:44.515Z,65.09
2023-01-12T14:32:15.346Z,65.42
2023-01-12T14:34:52.266Z,65.57
2023-01-12T14:37:30.391Z,65.90
2023-01-12T14:39:59.216Z,66.26
2023-01-12T14:42:45.637Z,65.94
2023-01-12T14:45:43.930Z,66.23
2023-01-12T14:48:27.541Z,66.75
2023-01-12T14:51:20.199Z,66.56
2023-01-12T14:53:57.117Z,66.42
2023-01-12T14:56:30.102Z,66.70
2023-01-12T14:59:15.209Z,66.38
2023-01-12T15:01:43.936Z,66.78
2023-01-12T15:04:20.184Z,66.81
2023-01-12T15:06:49.004Z,67.63
2023-01-12T15:09:31.700Z,66.88
2023-01-12T15:12:00.532Z,66.88
2023-01-12T15:14:30.295Z,66.49
2023-01-12T15:17:16.143Z,66.47
2023-01-12T15:20:13.355Z,66.72
2023-01-12T15:22:58.727Z,66.60
2023-01-12T15:25:37.501Z,67.20
2023-01-12T15:28:08.275Z,66.75
2023-01-12T15:30:39.439Z,66.54
2023-01-12T15:33:07.847Z,66.60
2023-01-12T15:35:36.187Z,66.88
2023-01-12T15:38:04.377Z,66.52
2023-01-12T15:40:35.475Z,67.08
2023-01-12T15:43:04.703Z,67.59
2023-01-12T15:45:36.497Z,67.57
2023-01-12T15:48:06.385Z,67.23
2023-01-12T15:50:38.036Z,67.03
2023-01-12T15:53:12.775Z,67.43
2023-01-12T15:55:42.613Z,67.50
2023-01-12T15:58:10.740Z,67.61
2023-01-12T16:00:39.820Z,67.90
2023-01-12T16:03:32.066Z,67.68
2023-01-12T16:06:00.324Z,67.54
2023-01-12T16:08:28.413Z,67.81
2023-01-12T16:11:13.575Z,67.91
2023-01-12T16:13:42.317Z,67.55
2023-01-12T16:16:16.175Z,67.70
2023-01-12T16:18:44.375Z,67.50
2023-01-12T16:21:17.663Z,68.05
2023-01-12T16:23:46.258Z,67.76
2023-01-12T16:26:15.787Z,67.49
2023-01-12T16:28:44.605Z,67.73
2023-01-12T16:31:15.524Z,67.52
2023-01-12T16:33:44.927Z,67.72
2023-01-12T16:36:15.484Z,67.71
2023-01-12T16:38:43.636Z,67.72
2023-01-12T16:41:18.857Z,67.31
2023-01-12T16:43:47.504Z,67.21
2023-01-12T16:46:17.274Z,67.67
2023-01-12T16:48:46.115Z,67.71
2023-01-12T16:51:15.726Z,67.73
2023-01-12T16:53:44.358Z,67.99
2023-01-12T16:56:16.752Z,67.74
2023-01-12T16:58:48.291Z,67.69
2023-01-12T17:01:22.015Z,67.47
2023-01-12T17:03:53.575Z,67.59
2023-01-12T17:06:22.892Z,68.22
2023-01-12T17:08:51.159Z,68.36
2023-01-12T17:11:23.753Z,67.97
2023-01-12T17:13:54.535Z,68.03
2023-01-12T17:16:25.106Z,68.24
2023-01-12T17:18:53.688Z,68.28
2023-01-12T17:21:22.566Z,68.32
2023-01-12T17:23:50.705Z,67.81
2023-01-12T17:26:21.140Z,67.49
2023-01-12T17:28:49.275Z,68.05
2023-01-12T17:31:20.312Z,68.13
2023-01-12T17:33:50.002Z,68.55
2023-01-12T17:36:19.413Z,68.57
2023-01-12T17:38:47.543Z,68.71
2023-01-12T17:41:31.783Z,69.28
2023-01-12T17:44:03.896Z,69.15
2023-01-12T17:46:32.951Z,69.07
2023-01-12T17:49:03.077Z,69.58
2023-01-12T17:51:31.447Z,69.37
2023-01-12T17:54:01.640Z,69.85
2023-01-12T17:56:32.860Z,69.68
2023-01-12T17:59:03.957Z,69.44
2023-01-12T18:01:35.457Z,69.87
2023-01-12T18:04:04.804Z,69.96
2023-01-12T18:06:32.903Z,69.94
2023-01-12T18:09:01.077Z,70.11
2023-01-12T18:11:31.070Z,69.80
2023-01-12T18:14:01.684Z,70.35
2023-01-12T18:16:30.321Z,70.43
2023-01-12T18:18:59.350Z,70.28
2023-01-12T18:21:28.792Z,70.43
2023-01-12T18:23:58.413Z,70.59
2023-01-12T18:26:29.683Z,70.67
2023-01-12T18:28:59.525Z,70.89
2023-01-12T18:31:31.745Z,70.73
2023-01-12T18:34:04.464Z,70.42
2023-01-12T18:36:34.764Z,70.28
2023-01-12T18:39:04.406Z,70.40
2023-01-12T18:41:50.256Z,70.22
2023-01-12T18:44:18.510Z,70.74
2023-01-12T18:47:05.382Z,70.46
2023-01-12T18:49:36.489Z,70.67
2023-01-12T18:52:22.843Z,69.96
2023-01-12T18:54:53.291Z,70.25
2023-01-12T18:57:25.588Z,70.14
2023-01-12T18:59:56.890Z,70.90
2023-01-12T19:02:26.950Z,70.87
2023-01-12T19:05:13.386Z,70.66
2023-01-12T19:08:01.981Z,70.08
2023-01-12T19:10:30.928Z,70.41
2023-01-12T19:13:17.775Z,70.80
2023-01-12T19:16:03.815Z,70.99
2023-01-12T19:18:36.898Z,71.11
2023-01-12T19:21:26.893Z,71.06
2023-01-12T19:24:12.713Z,71.27
2023-01-12T19:26:58.474Z,71.13
2023-01-12T19:29:26.614Z,72.03
2023-01-12T19:31:54.746Z,71.81
2023-01-12T19:34:25.602Z,71.43
2023-01-12T19:36:53.751Z,71.25
2023-01-12T19:39:34.252Z,71.57
2023-01-12T19:42:19.933Z,71.04
2023-01-12T19:44:48.163Z,71.67
2023-01-12T19:47:16.236Z,71.95
2023-01-12T19:49:45.781Z,71.94
2023-01-12T19:52:13.942Z,71.66
2023-01-12T19:54:42.079Z,71.37
2023-01-12T19:57:10.170Z,71.43
2023-01-12T19:59:38.278Z,71.86
2023-01-12T20:02:06.466Z,71.66
2023-01-12T20:04:34.654Z,71.82
2023-01-12T20:07:04.153Z,71.25
2023-01-12T20:09:32.250Z,70.96
2023-01-12T20:12:00.369Z,70.61
2023-01-12T20:14:28.523Z,70.53
2023-01-12T20:16:56.642Z,70.76
2023-01-12T20:19:24.925Z,70.84
2023-01-12T20:21:53.068Z,70.78
2023-01-12T20:24:22.571Z,71.10
2023-01-12T20:26:50.906Z,70.76
2023-01-12T20:29:19.488Z,70.52
2023-01-12T20:31:50.004Z,70.43
2023-01-12T20:34:18.096Z,70.63
2023-01-12T20:36:47.819Z,71.14
2023-01-12T20:39:16.460Z,71.55
2023-01-12T20:41:46.002Z,71.61
2023-01-12T20:44:17.677Z,71.73
2023-01-12T20:46:45.983Z,72.18
2023-01-12T20:49:14.235Z,71.75
2023-01-12T20:51:42.380Z,72.47
2023-01-12T20:54:11.611Z,72.52
2023-01-12T20:56:39.815Z,72.00
2023-01-12T20:59:09.646Z,71.62
2023-01-12T21:01:37.987Z,71.78
2023-01-12T21:04:06.190Z,71.47
2023-01-12T21:06:34.443Z,71.23
2023-01-12T21:09:02.893Z,71.14
2023-01-12T21:11:31.193Z,70.72
2023-01-12T21:13:59.205Z,70.60
2023-01-12T21:16:29.944Z,70.20
2023-01-12T21:18:58.520Z,70.66
2023-01-12T21:21:26.655Z,70.08
2023-01-12T21:23:54.774Z,69.93
2023-01-12T21:26:22.918Z,69.42
2023-01-12T21:28:51.210Z,69.42
2023-01-12T21:31:19.466Z,69.21
2023-01-12T21:33:49.023Z,69.06
2023-01-12T21:36:18.226Z,69.41
2023-01-12T21:38:51.145Z,68.96
2023-01-12T21:41:21.551Z,68.53
2023-01-12T21:43:50.564Z,68.68
2023-01-12T21:46:19.726Z,67.96
2023-01-12T21:48:49.268Z,67.59
2023-01-12T21:51:18.634Z,68.07
2023-01-12T21:53:46.747Z,67.92
2023-01-12T21:56:15.265Z,67.35
2023-01-12T21:58:43.381Z,67.43
2023-01-12T22:01:14.900Z,67.49
2023-01-12T22:03:43.590Z,67.97
2023-01-12T22:06:14.667Z,68.22
2023-01-12T22:08:43.631Z,67.84
2023-01-12T22:11:14.195Z,66.88
2023-01-12T22:13:43.327Z,67.26
2023-01-12T22:16:14.116Z,66.97
2023-01-12T22:18:46.388Z,67.36
2023-01-12T22:21:17.013Z,67.23
2023-01-12T22:23:45.660Z,67.28
2023-01-12T22:26:16.326Z,67.29
2023-01-12T22:28:46.900Z,67.17
2023-01-12T22:31:18.321Z,66.66
2023-01-12T22:33:48.129Z,67.14
2023-01-12T22:36:17.548Z,67.50
2023-01-12T22:38:45.646Z,67.24
2023-01-12T22:41:14.493Z,67.00
2023-01-12T22:43:42.760Z,67.08
2023-01-12T22:46:15.387Z,67.03
2023-01-12T22:48:43.996Z,67.29
2023-01-12T22:51:12.076Z,67.80
2023-01-12T22:53:41.540Z,67.52
2023-01-12T22:56:11.598Z,67.68
2023-01-12T22:58:42.582Z,68.05
2023-01-12T23:01:11.258Z,68.05
2023-01-12T23:03:39.517Z,68.44
2023-01-12T23:06:12.729Z,68.29
2023-01-12T23:08:45.327Z,68.24
2023-01-12T23:11:16.008Z,68.31
2023-01-12T23:13:46.271Z,68.20
2023-01-12T23:16:17.518Z,68.73
2023-01-12T23:18:48.133Z,68.59
2023-01-12T23:21:19.954Z,68.22
2023-01-12T23:23:52.267Z,68.77
2023-01-12T23:26:24.345Z,67.94
2023-01-12T23:28:56.083Z,68.03
2023-01-12T23:31:27.907Z,67.86
2023-01-12T23:33:59.272Z,68.08
2023-01-12T23:36:29.882Z,67.68
2023-01-12T23:39:03.080Z,68.18
2023-01-12T23:41:34.591Z,67.96
2023-01-12T23:44:08.483Z,67.51
2023-01-12T23:46:40.290Z,67.83
2023-01-12T23:49:08.431Z,67.69
2023-01-12T23:51:36.745Z,67.65
2023-01-12T23:54:07.640Z,67.49
2023-01-12T23:56:35.750Z,67.94
2023-01-12T23:59:04.077Z,67.89
